createdAt,value
2019-01-31T00:02:10.240Z,64.57
2019-01-31T00:04:42.096Z,59.17
2019-01-31T00:07:16.877Z,59.43
2019-01-31T00:10:00.526Z,61.13
2019-01-31T00:12:44.364Z,56.37
2019-01-31T00:15:31.227Z,63.53
2019-01-31T00:18:06.088Z,59.43
2019-01-31T00:20:46.954Z,59.80
2019-01-31T00:23:41.497Z,58.87
2019-01-31T00:26:19.201Z,58.97
2019-01-31T00:29:14.973Z,61.63
2019-01-31T00:31:58.684Z,57.23
2019-01-31T00:34:42.337Z,54.47
2019-01-31T00:37:16.716Z,57.70
2019-01-31T00:39:57.319Z,64.00
2019-01-31T00:42:31.948Z,49.53
2019-01-31T00:45:18.706Z,52.10
2019-01-31T00:47:50.480Z,58.00
2019-01-31T00:50:28.260Z,54.00
2019-01-31T00:53:15.141Z,54.73
2019-01-31T00:56:03.340Z,61.80
2019-01-31T00:58:59.183Z,54.53
2019-01-31T01:01:46.352Z,53.40
2019-01-31T01:04:52.721Z,54.70
2019-01-31T01:07:27.515Z,50.97
2019-01-31T01:10:04.743Z,55.47
2019-01-31T01:12:54.621Z,55.13
2019-01-31T01:15:45.734Z,54.47
2019-01-31T01:18:20.236Z,53.33
2019-01-31T01:20:54.829Z,62.43
2019-01-31T01:23:35.820Z,51.97
2019-01-31T01:26:10.856Z,53.90
2019-01-31T01:28:42.769Z,53.83
2019-01-31T01:31:26.584Z,54.80
2019-01-31T01:34:29.892Z,50.90
2019-01-31T01:37:07.706Z,57.07
2019-01-31T01:39:45.460Z,48.80
2019-01-31T01:42:41.097Z,50.10
2019-01-31T01:45:18.733Z,49.10
2019-01-31T01:47:56.353Z,54.60
2019-01-31T01:50:37.319Z,49.87
2019-01-31T01:53:09.253Z,46.50
2019-01-31T01:55:52.667Z,53.17
2019-01-31T01:58:27.434Z,49.83
2019-01-31T02:01:04.841Z,46.53
2019-01-31T02:03:45.481Z,43.90
2019-01-31T02:06:20.002Z,49.20
2019-01-31T02:09:08.524Z,48.67
2019-01-31T02:11:58.206Z,48.20
2019-01-31T02:14:38.801Z,52.67
2019-01-31T02:17:16.331Z,51.03
2019-01-31T02:20:00.336Z,50.20
2019-01-31T02:22:43.916Z,52.80
2019-01-31T02:25:32.501Z,44.70
2019-01-31T02:28:07.019Z,49.67
2019-01-31T02:30:53.302Z,42.30
2019-01-31T02:33:39.357Z,49.73
2019-01-31T02:36:22.900Z,45.60
2019-01-31T02:39:14.562Z,50.17
2019-01-31T02:42:08.344Z,46.90
2019-01-31T02:45:01.585Z,51.53
2019-01-31T02:47:42.151Z,48.30
2019-01-31T02:50:17.192Z,50.53
2019-01-31T02:53:23.791Z,42.70
2019-01-31T02:55:58.348Z,45.53
2019-01-31T02:58:49.954Z,48.10
2019-01-31T03:01:30.546Z,49.53
2019-01-31T03:04:22.678Z,50.80
2019-01-31T03:06:57.275Z,52.10
2019-01-31T03:09:34.964Z,45.20
2019-01-31T03:12:18.556Z,44.10
2019-01-31T03:14:50.171Z,47.50
2019-01-31T03:17:39.915Z,48.93
2019-01-31T03:20:23.820Z,39.20
2019-01-31T03:23:18.044Z,41.40
2019-01-31T03:25:59.412Z,48.87
2019-01-31T03:28:34.524Z,42.17
2019-01-31T03:31:12.067Z,44.50
2019-01-31T03:34:17.056Z,40.13
2019-01-31T03:36:57.551Z,44.20
2019-01-31T03:39:35.549Z,50.90
2019-01-31T03:42:19.035Z,44.73
2019-01-31T03:44:56.990Z,45.37
2019-01-31T03:47:43.665Z,44.43
2019-01-31T03:50:15.369Z,41.07
2019-01-31T03:52:49.826Z,41.47
2019-01-31T03:55:33.882Z,40.13
2019-01-31T03:58:22.093Z,38.97
2019-01-31T04:01:13.785Z,38.20
2019-01-31T04:03:48.923Z,43.23
2019-01-31T04:06:19.496Z,40.20
2019-01-31T04:08:48.020Z,40.50
2019-01-31T04:11:16.736Z,44.90
2019-01-31T04:13:45.304Z,47.23
2019-01-31T04:16:14.005Z,42.30
2019-01-31T04:18:42.664Z,45.00
2019-01-31T04:21:11.751Z,42.07
2019-01-31T04:23:40.354Z,42.47
2019-01-31T04:26:09.321Z,39.80
2019-01-31T04:28:38.448Z,37.23
2019-01-31T04:31:07.037Z,40.63
2019-01-31T04:33:35.972Z,43.70
2019-01-31T04:36:05.169Z,41.07
2019-01-31T04:38:33.814Z,46.10
2019-01-31T04:41:02.356Z,40.30
2019-01-31T04:43:30.986Z,35.07
2019-01-31T04:45:59.969Z,36.90
2019-01-31T04:48:28.540Z,40.40
2019-01-31T04:50:57.336Z,43.93
2019-01-31T04:53:26.038Z,42.50
2019-01-31T04:55:54.600Z,39.70
2019-01-31T04:58:23.376Z,40.60
2019-01-31T05:00:52.375Z,34.53
2019-01-31T05:03:20.993Z,41.97
2019-01-31T05:05:49.638Z,37.53
2019-01-31T05:08:18.249Z,39.20
2019-01-31T05:10:46.832Z,34.30
2019-01-31T05:13:15.495Z,38.70
2019-01-31T05:15:44.027Z,39.23
2019-01-31T05:18:12.795Z,41.03
2019-01-31T05:20:42.393Z,42.30
2019-01-31T05:23:11.233Z,43.17
2019-01-31T05:25:40.335Z,39.10
2019-01-31T05:28:09.361Z,31.77
2019-01-31T05:30:37.958Z,34.60
2019-01-31T05:33:07.298Z,34.47
2019-01-31T05:35:36.406Z,35.90
2019-01-31T05:38:05.392Z,33.73
2019-01-31T05:40:34.059Z,37.17
2019-01-31T05:43:02.644Z,38.03
2019-01-31T05:45:31.234Z,31.93
2019-01-31T05:47:59.900Z,38.00
2019-01-31T05:50:28.480Z,34.43
2019-01-31T05:52:57.157Z,33.97
2019-01-31T05:55:25.744Z,33.80
2019-01-31T05:57:54.435Z,35.53
2019-01-31T06:00:25.346Z,36.03
2019-01-31T06:02:54.353Z,35.73
2019-01-31T06:05:23.681Z,36.63
2019-01-31T06:07:52.221Z,30.47
2019-01-31T06:10:20.822Z,35.77
2019-01-31T06:12:49.523Z,35.17
2019-01-31T06:15:19.440Z,36.67
2019-01-31T06:17:48.398Z,34.90
2019-01-31T06:20:25.310Z,37.77
2019-01-31T06:22:54.118Z,38.83
2019-01-31T06:25:22.926Z,35.13
2019-01-31T06:27:51.714Z,33.43
2019-01-31T06:30:20.882Z,34.20
2019-01-31T06:32:49.538Z,35.10
2019-01-31T06:35:18.079Z,31.50
2019-01-31T06:37:47.016Z,31.93
2019-01-31T06:40:20.986Z,34.10
2019-01-31T06:42:50.323Z,28.80
2019-01-31T06:45:21.395Z,30.97
2019-01-31T06:47:50.076Z,35.83
2019-01-31T06:50:19.036Z,32.10
2019-01-31T06:52:47.674Z,33.83
2019-01-31T06:55:16.289Z,35.73
2019-01-31T06:57:44.941Z,34.03
2019-01-31T07:00:21.619Z,34.17
2019-01-31T07:02:50.161Z,29.60
2019-01-31T07:05:18.831Z,32.87
2019-01-31T07:07:47.822Z,34.83
2019-01-31T07:10:22.246Z,31.90
2019-01-31T07:12:50.855Z,38.30
2019-01-31T07:15:19.616Z,36.50
2019-01-31T07:17:48.301Z,40.50
2019-01-31T07:20:18.139Z,32.33
2019-01-31T07:22:47.057Z,30.90
2019-01-31T07:25:18.301Z,44.97
2019-01-31T07:27:47.231Z,32.50
2019-01-31T07:30:18.322Z,34.43
2019-01-31T07:32:47.068Z,35.00
2019-01-31T07:35:16.079Z,32.40
2019-01-31T07:37:45.152Z,35.33
2019-01-31T07:40:16.995Z,32.83
2019-01-31T07:42:45.662Z,29.87
2019-01-31T07:45:22.653Z,36.00
2019-01-31T07:47:51.297Z,34.53
2019-01-31T07:50:20.277Z,30.23
2019-01-31T07:52:49.984Z,32.33
2019-01-31T07:55:19.319Z,34.33
2019-01-31T07:57:47.956Z,36.83
2019-01-31T08:00:24.597Z,29.90
2019-01-31T08:02:53.433Z,33.50
2019-01-31T08:05:23.484Z,32.40
2019-01-31T08:07:54.171Z,36.23
2019-01-31T08:10:25.976Z,28.70
2019-01-31T08:12:54.604Z,33.23
2019-01-31T08:15:23.204Z,31.20
2019-01-31T08:17:51.881Z,34.03
2019-01-31T08:20:21.235Z,31.50
2019-01-31T08:22:49.936Z,30.90
2019-01-31T08:25:23.827Z,34.20
2019-01-31T08:27:53.496Z,31.63
2019-01-31T08:30:31.077Z,31.63
2019-01-31T08:33:00.759Z,32.20
2019-01-31T08:35:29.456Z,29.13
2019-01-31T08:37:58.353Z,34.10
2019-01-31T08:40:27.380Z,33.30
2019-01-31T08:42:56.886Z,32.00
2019-01-31T08:45:25.770Z,31.30
2019-01-31T08:47:54.432Z,29.67
2019-01-31T08:50:27.989Z,33.03
2019-01-31T08:52:56.610Z,32.93
2019-01-31T08:55:25.197Z,34.63
2019-01-31T08:57:53.820Z,29.70
2019-01-31T09:00:24.639Z,31.00
2019-01-31T09:02:53.544Z,33.33
2019-01-31T09:05:22.201Z,33.07
2019-01-31T09:07:50.983Z,35.13
2019-01-31T09:10:25.428Z,32.77
2019-01-31T09:12:54.255Z,32.97
2019-01-31T09:15:24.585Z,32.13
2019-01-31T09:17:53.349Z,30.40
2019-01-31T09:20:40.247Z,28.03
2019-01-31T09:23:20.633Z,31.47
2019-01-31T09:26:16.490Z,35.60
2019-01-31T09:28:53.685Z,32.03
2019-01-31T09:31:31.526Z,29.90
2019-01-31T09:34:12.411Z,29.87
2019-01-31T09:36:50.232Z,32.30
2019-01-31T09:39:36.793Z,35.33
2019-01-31T09:42:11.731Z,30.93
2019-01-31T09:44:58.371Z,28.23
2019-01-31T09:47:36.159Z,30.27
2019-01-31T09:50:19.436Z,27.80
2019-01-31T09:53:05.675Z,37.30
2019-01-31T09:55:49.736Z,29.57
2019-01-31T09:58:21.902Z,35.27
2019-01-31T10:01:20.954Z,29.93
2019-01-31T10:04:01.475Z,31.33
2019-01-31T10:06:36.262Z,27.57
2019-01-31T10:09:17.066Z,31.60
2019-01-31T10:11:57.726Z,27.77
2019-01-31T10:14:47.228Z,26.50
2019-01-31T10:17:46.302Z,23.73
2019-01-31T10:20:45.369Z,28.37
2019-01-31T10:23:26.231Z,22.50
2019-01-31T10:26:13.091Z,19.23
2019-01-31T10:29:03.061Z,22.93
2019-01-31T10:31:34.919Z,19.63
2019-01-31T10:34:23.374Z,15.83
2019-01-31T10:37:13.413Z,19.80
2019-01-31T10:40:07.265Z,22.80
2019-01-31T10:42:57.280Z,20.67
2019-01-31T10:45:37.958Z,20.60
2019-01-31T10:48:34.143Z,17.77
2019-01-31T10:51:40.651Z,19.23
2019-01-31T10:54:29.868Z,21.93
2019-01-31T10:57:19.501Z,22.70
2019-01-31T11:00:23.528Z,24.13
2019-01-31T11:03:14.409Z,18.93
2019-01-31T11:06:09.794Z,17.20
2019-01-31T11:08:41.823Z,18.20
2019-01-31T11:11:16.405Z,19.70
2019-01-31T11:13:57.275Z,17.60
2019-01-31T11:16:29.671Z,17.87
2019-01-31T11:19:12.132Z,16.57
2019-01-31T11:22:14.342Z,20.70
2019-01-31T11:24:53.227Z,18.20
2019-01-31T11:27:39.918Z,13.63
2019-01-31T11:30:29.759Z,18.03
2019-01-31T11:33:13.813Z,12.53
2019-01-31T11:35:54.358Z,15.47
2019-01-31T11:38:43.987Z,16.23
2019-01-31T11:41:32.169Z,11.70
2019-01-31T11:44:12.788Z,12.30
2019-01-31T11:46:53.669Z,12.43
2019-01-31T11:49:37.458Z,14.40
2019-01-31T11:52:16.456Z,12.80
2019-01-31T11:54:50.956Z,10.87
2019-01-31T11:57:55.684Z,11.30
2019-01-31T12:00:26.345Z,14.53
2019-01-31T12:02:55.434Z,12.60
2019-01-31T12:05:24.369Z,13.63
2019-01-31T12:07:55.394Z,11.93
2019-01-31T12:10:24.424Z,12.37
2019-01-31T12:12:53.783Z,10.50
2019-01-31T12:15:22.411Z,9.13
2019-01-31T12:17:51.204Z,10.57
2019-01-31T12:20:19.954Z,12.23
2019-01-31T12:22:48.835Z,13.63
2019-01-31T12:25:17.521Z,14.13
2019-01-31T12:27:46.886Z,10.50
2019-01-31T12:30:24.746Z,9.73
2019-01-31T12:32:53.486Z,9.43
2019-01-31T12:35:22.193Z,13.97
2019-01-31T12:37:51.540Z,11.60
2019-01-31T12:40:20.231Z,10.70
2019-01-31T12:42:49.172Z,10.20
2019-01-31T12:45:19.861Z,7.13
2019-01-31T12:47:48.994Z,6.97
2019-01-31T12:50:23.106Z,6.43
2019-01-31T12:52:51.901Z,10.67
2019-01-31T12:55:20.499Z,12.57
2019-01-31T12:57:49.299Z,6.53
2019-01-31T13:00:23.457Z,7.27
2019-01-31T13:02:52.434Z,6.30
2019-01-31T13:05:21.321Z,7.80
2019-01-31T13:07:50.445Z,5.60
2019-01-31T13:10:20.296Z,6.80
2019-01-31T13:12:49.562Z,10.60
2019-01-31T13:15:18.242Z,8.40
2019-01-31T13:17:46.850Z,6.43
2019-01-31T13:20:20.417Z,9.00
2019-01-31T13:22:51.801Z,4.40
2019-01-31T13:25:21.218Z,5.90
2019-01-31T13:27:49.846Z,6.00
2019-01-31T13:30:21.514Z,7.63
2019-01-31T13:32:51.437Z,5.90
2019-01-31T13:35:20.216Z,4.77
2019-01-31T13:37:49.260Z,12.97
2019-01-31T13:40:25.855Z,4.73
2019-01-31T13:42:57.130Z,3.97
2019-01-31T13:45:31.450Z,16.13
2019-01-31T13:48:02.475Z,11.10
2019-01-31T13:50:31.700Z,7.90
2019-01-31T13:53:00.885Z,6.00
2019-01-31T13:55:31.980Z,5.30
2019-01-31T13:58:01.357Z,4.67
2019-01-31T14:00:30.182Z,6.57
2019-01-31T14:02:59.092Z,4.60
2019-01-31T14:05:29.902Z,4.10
2019-01-31T14:07:58.829Z,5.00
2019-01-31T14:10:28.191Z,6.70
2019-01-31T14:12:57.333Z,6.10
2019-01-31T14:15:33.982Z,4.70
2019-01-31T14:18:02.407Z,5.63
2019-01-31T14:20:31.291Z,9.33
2019-01-31T14:23:01.442Z,20.03
2019-01-31T14:25:30.216Z,12.60
2019-01-31T14:27:59.480Z,16.53
2019-01-31T14:30:37.220Z,15.63
2019-01-31T14:33:09.112Z,18.43
2019-01-31T14:35:38.000Z,12.87
2019-01-31T14:38:07.385Z,19.87
2019-01-31T14:40:36.250Z,18.13
2019-01-31T14:43:05.594Z,21.33
2019-01-31T14:45:34.497Z,15.77
2019-01-31T14:48:03.801Z,22.00
2019-01-31T14:50:34.555Z,18.77
2019-01-31T14:53:03.525Z,19.33
2019-01-31T14:55:32.562Z,18.87
2019-01-31T14:58:03.846Z,19.33
2019-01-31T15:00:33.473Z,19.87
2019-01-31T15:03:03.298Z,23.53
2019-01-31T15:05:36.608Z,16.93
2019-01-31T15:08:09.311Z,17.50
2019-01-31T15:10:38.354Z,17.20
2019-01-31T15:13:07.545Z,16.80
2019-01-31T15:15:37.025Z,16.13
2019-01-31T15:18:06.779Z,15.20
2019-01-31T15:20:41.287Z,17.33
2019-01-31T15:23:10.802Z,19.00
2019-01-31T15:25:39.990Z,21.93
2019-01-31T15:28:08.893Z,18.93
2019-01-31T15:30:38.599Z,20.43
2019-01-31T15:33:10.368Z,20.43
2019-01-31T15:35:39.046Z,24.10
2019-01-31T15:38:08.027Z,19.97
2019-01-31T15:40:40.414Z,17.60
2019-01-31T15:43:09.839Z,20.57
2019-01-31T15:45:39.019Z,18.33
2019-01-31T15:48:10.960Z,19.43
2019-01-31T15:50:40.964Z,18.03
2019-01-31T15:53:10.170Z,20.67
2019-01-31T15:55:39.708Z,18.37
2019-01-31T15:58:09.234Z,16.97
2019-01-31T16:00:44.820Z,15.97
2019-01-31T16:03:15.892Z,16.57
2019-01-31T16:05:45.537Z,23.07
2019-01-31T16:08:14.591Z,15.47
2019-01-31T16:10:44.792Z,16.53
2019-01-31T16:13:13.834Z,22.23
2019-01-31T16:15:44.751Z,22.00
2019-01-31T16:18:15.075Z,22.73
2019-01-31T16:20:44.471Z,28.20
2019-01-31T16:23:14.004Z,17.80
2019-01-31T16:25:47.485Z,21.97
2019-01-31T16:28:16.282Z,27.43
2019-01-31T16:30:45.057Z,34.57
2019-01-31T16:33:13.923Z,33.30
2019-01-31T16:35:42.742Z,45.40
2019-01-31T16:38:12.986Z,36.33
2019-01-31T16:40:42.575Z,31.37
2019-01-31T16:43:11.512Z,28.67
2019-01-31T16:45:40.328Z,27.57
2019-01-31T16:48:09.194Z,29.23
2019-01-31T16:50:38.062Z,31.33
2019-01-31T16:53:07.031Z,33.77
2019-01-31T16:55:35.771Z,32.53
2019-01-31T16:58:06.257Z,28.73
2019-01-31T17:00:35.513Z,29.87
2019-01-31T17:03:05.620Z,32.73
2019-01-31T17:05:35.108Z,20.40
2019-01-31T17:08:04.527Z,24.27
2019-01-31T17:10:34.835Z,25.57
2019-01-31T17:13:04.382Z,26.03
2019-01-31T17:15:33.554Z,28.53
2019-01-31T17:18:03.767Z,26.70
2019-01-31T17:20:41.182Z,22.70
2019-01-31T17:23:10.289Z,21.70
2019-01-31T17:25:39.519Z,22.90
2019-01-31T17:28:09.257Z,26.67
2019-01-31T17:30:38.466Z,22.43
2019-01-31T17:33:07.257Z,19.50
2019-01-31T17:35:36.488Z,23.20
2019-01-31T17:38:05.462Z,23.73
2019-01-31T17:40:37.021Z,21.40
2019-01-31T17:43:07.343Z,24.80
2019-01-31T17:45:35.921Z,20.13
2019-01-31T17:48:05.594Z,19.67
2019-01-31T17:50:34.606Z,17.90
2019-01-31T17:53:03.499Z,21.50
2019-01-31T17:55:32.476Z,27.20
2019-01-31T17:58:01.191Z,21.20
2019-01-31T18:00:36.968Z,21.77
2019-01-31T18:03:07.285Z,21.03
2019-01-31T18:05:36.080Z,25.13
2019-01-31T18:08:09.039Z,26.73
2019-01-31T18:10:36.230Z,21.93
2019-01-31T18:13:05.705Z,27.43
2019-01-31T18:15:42.251Z,29.53
2019-01-31T18:18:05.956Z,26.33
2019-01-31T18:20:34.935Z,23.23
2019-01-31T18:23:03.763Z,27.30
2019-01-31T18:25:32.453Z,23.33
2019-01-31T18:28:01.343Z,28.93
2019-01-31T18:30:35.672Z,29.07
2019-01-31T18:33:05.756Z,28.30
2019-01-31T18:35:34.907Z,29.87
2019-01-31T18:38:06.063Z,35.67
2019-01-31T18:40:36.017Z,33.83
2019-01-31T18:43:04.940Z,32.50
2019-01-31T18:45:36.085Z,34.07
2019-01-31T18:48:08.033Z,32.17
2019-01-31T18:50:42.380Z,32.37
2019-01-31T18:53:12.912Z,33.43
2019-01-31T18:55:42.619Z,31.23
2019-01-31T18:58:15.301Z,30.53
2019-01-31T19:00:47.926Z,33.23
2019-01-31T19:03:21.196Z,38.60
2019-01-31T19:05:51.442Z,35.47
2019-01-31T19:08:21.547Z,35.00
2019-01-31T19:10:51.049Z,31.43
2019-01-31T19:13:21.281Z,36.40
2019-01-31T19:15:50.080Z,37.50
2019-01-31T19:18:19.170Z,41.07
2019-01-31T19:20:48.518Z,39.60
2019-01-31T19:23:18.112Z,41.40
2019-01-31T19:25:47.394Z,38.17
2019-01-31T19:28:18.117Z,37.50
2019-01-31T19:30:48.508Z,43.80
2019-01-31T19:33:20.666Z,40.77
2019-01-31T19:35:50.546Z,40.13
2019-01-31T19:38:20.856Z,43.23
2019-01-31T19:40:52.549Z,40.83
2019-01-31T19:43:22.625Z,38.83
2019-01-31T19:45:52.019Z,44.80
2019-01-31T19:48:23.465Z,43.10
2019-01-31T19:50:52.777Z,47.07
2019-01-31T19:53:22.733Z,47.43
2019-01-31T19:55:52.588Z,55.77
2019-01-31T19:58:22.153Z,49.90
2019-01-31T20:00:52.414Z,51.73
2019-01-31T20:03:22.698Z,50.20
2019-01-31T20:05:53.617Z,43.43
2019-01-31T20:08:24.976Z,47.13
2019-01-31T20:10:56.618Z,45.00
2019-01-31T20:13:28.003Z,49.47
2019-01-31T20:15:58.941Z,61.67
2019-01-31T20:18:28.975Z,47.87
2019-01-31T20:21:00.513Z,62.80
2019-01-31T20:23:33.876Z,56.00
2019-01-31T20:26:03.349Z,57.27
2019-01-31T20:28:34.164Z,54.23
2019-01-31T20:31:03.909Z,60.77
2019-01-31T20:33:34.021Z,54.30
2019-01-31T20:36:04.623Z,56.93
2019-01-31T20:38:34.248Z,59.93
2019-01-31T20:41:03.501Z,62.83
2019-01-31T20:43:32.877Z,57.47
2019-01-31T20:46:02.436Z,56.43
2019-01-31T20:48:32.307Z,55.73
2019-01-31T20:51:02.576Z,58.70
2019-01-31T20:53:31.853Z,58.47
2019-01-31T20:56:02.967Z,64.87
2019-01-31T20:58:32.601Z,62.77
2019-01-31T21:01:06.093Z,64.90
2019-01-31T21:03:41.990Z,59.87
2019-01-31T21:06:13.020Z,66.70
2019-01-31T21:08:43.286Z,59.10
2019-01-31T21:11:12.959Z,61.00
2019-01-31T21:13:42.527Z,60.53
2019-01-31T21:16:13.362Z,68.23
2019-01-31T21:18:43.208Z,64.37
2019-01-31T21:21:13.366Z,74.03
2019-01-31T21:23:42.459Z,65.00
2019-01-31T21:26:13.779Z,68.80
2019-01-31T21:28:44.212Z,64.83
2019-01-31T21:31:13.951Z,65.17
2019-01-31T21:33:44.507Z,64.47
2019-01-31T21:36:16.483Z,69.70
2019-01-31T21:38:46.983Z,62.63
2019-01-31T21:41:16.992Z,67.07
2019-01-31T21:43:46.036Z,68.00
2019-01-31T21:46:15.412Z,69.20
2019-01-31T21:48:44.909Z,66.13
2019-01-31T21:51:15.645Z,68.83
2019-01-31T21:53:46.431Z,70.50
2019-01-31T21:56:17.032Z,63.73
2019-01-31T21:58:47.260Z,70.30
2019-01-31T22:01:15.951Z,70.00
2019-01-31T22:03:44.922Z,80.07
2019-01-31T22:06:22.269Z,69.67
2019-01-31T22:08:44.421Z,67.33
2019-01-31T22:11:13.261Z,62.27
2019-01-31T22:13:42.800Z,70.93
2019-01-31T22:16:12.481Z,65.10
2019-01-31T22:18:41.378Z,66.27
2019-01-31T22:21:10.252Z,74.73
2019-01-31T22:23:39.147Z,71.87
2019-01-31T22:26:07.852Z,72.40
2019-01-31T22:28:36.894Z,73.60
2019-01-31T22:31:05.530Z,72.40
2019-01-31T22:33:34.384Z,74.23
2019-01-31T22:36:03.088Z,79.17
2019-01-31T22:38:31.836Z,73.50
2019-01-31T22:41:00.493Z,73.50
2019-01-31T22:43:29.192Z,72.73
2019-01-31T22:45:57.930Z,73.83
2019-01-31T22:48:26.671Z,75.40
2019-01-31T22:50:55.326Z,69.07
2019-01-31T22:53:23.982Z,83.33
2019-01-31T22:55:53.167Z,84.90
2019-01-31T22:58:22.342Z,82.73
2019-01-31T23:01:01.465Z,79.57
2019-01-31T23:03:30.239Z,72.27
2019-01-31T23:05:58.833Z,77.40
2019-01-31T23:08:27.540Z,73.87
2019-01-31T23:10:56.145Z,76.57
2019-01-31T23:13:24.898Z,78.60
2019-01-31T23:15:53.618Z,89.60
2019-01-31T23:18:22.286Z,78.77
2019-01-31T23:20:51.008Z,80.53
2019-01-31T23:23:20.114Z,76.43
2019-01-31T23:25:48.764Z,78.17
2019-01-31T23:28:17.459Z,85.70
2019-01-31T23:30:46.060Z,77.07
2019-01-31T23:33:14.769Z,79.00
2019-01-31T23:35:43.776Z,84.73
2019-01-31T23:38:12.371Z,81.90
2019-01-31T23:40:40.990Z,79.20
2019-01-31T23:43:09.758Z,74.20
2019-01-31T23:45:38.482Z,74.37
2019-01-31T23:48:07.103Z,77.27
2019-01-31T23:50:35.858Z,79.63
2019-01-31T23:53:04.563Z,86.73
2019-01-31T23:55:33.146Z,80.90
2019-01-31T23:58:02.587Z,80.50
